Time;durP1;ratioP1;P1;durP2;ratioP2;P2;SDS_P1;SDS_P2;PMS_P1;PMS_P2;Temp;Humidity;BMP_temperature;BMP_pressure;BME280_temperature;BME280_humidity;BME280_pressure;Samples;Min_cycle;Max_cycle;Signal;HPM_P1;HPM_P2
2022/09/08 00:01:30;;;;;;;33.17;30.25;;;16.20;99.90;;;;;;5063780;28;20387;-73
2022/09/08 00:03:57;;;;;;;34.45;31.40;;;16.10;99.90;;;;;;5072711;28;20418;-73
2022/09/08 00:06:24;;;;;;;35.92;32.72;;;16.10;99.90;;;;;;5074096;28;20138;-73
2022/09/08 00:08:51;;;;;;;34.92;31.88;;;16.10;99.90;;;;;;5051549;28;20527;-73
2022/09/08 00:11:21;;;;;;;32.90;30.08;;;16.10;99.90;;;;;;5072351;28;20079;-72
2022/09/08 00:13:48;;;;;;;36.22;32.97;;;16.00;99.90;;;;;;5071638;28;20593;-73
2022/09/08 00:16:18;;;;;;;33.75;30.75;;;16.00;99.90;;;;;;5074165;28;20051;-73
2022/09/08 00:18:47;;;;;;;33.30;30.33;;;16.20;99.90;;;;;;5044259;28;20040;-73
2022/09/08 00:21:14;;;;;;;35.95;32.72;;;16.30;99.90;;;;;;5072351;28;20044;-73
2022/09/08 00:23:40;;;;;;;35.20;31.98;;;16.20;99.90;;;;;;5066214;28;20039;-73
2022/09/08 00:26:07;;;;;;;34.20;31.00;;;16.20;99.90;;;;;;5053287;28;20044;-73
2022/09/08 00:28:34;;;;;;;33.72;30.63;;;16.20;99.90;;;;;;5037209;28;20048;-73
2022/09/08 00:31:01;;;;;;;34.15;30.98;;;16.00;99.90;;;;;;5054057;28;20036;-71
2022/09/08 00:33:29;;;;;;;35.42;32.03;;;15.90;99.90;;;;;;5074998;28;20072;-71
2022/09/08 00:35:56;;;;;;;36.30;32.70;;;16.00;99.90;;;;;;5055980;28;20048;-71
2022/09/08 00:38:23;;;;;;;35.95;32.55;;;15.90;99.90;;;;;;5078991;28;20032;-71
2022/09/08 00:40:51;;;;;;;34.60;31.50;;;15.90;99.90;;;;;;5080292;28;20040;-73
2022/09/08 00:43:39;;;;;;;34.05;31.05;;;15.80;99.90;;;;;;5063120;28;20044;-73
2022/09/08 00:46:08;;;;;;;36.00;32.67;;;15.70;99.90;;;;;;5082180;28;20043;-73
2022/09/08 00:48:41;;;;;;;35.35;32.00;;;15.70;99.90;;;;;;5088531;28;20043;-73
2022/09/08 00:51:08;;;;;;;35.65;32.30;;;15.70;99.90;;;;;;5077810;28;20352;-73
2022/09/08 00:53:40;;;;;;;34.08;30.98;;;15.70;99.90;;;;;;5067649;28;20731;-73
2022/09/08 00:56:07;;;;;;;36.55;33.05;;;15.70;99.90;;;;;;5055201;28;20547;-71
2022/09/08 00:58:36;;;;;;;33.92;30.52;;;15.60;99.90;;;;;;5060460;28;20157;-71
2022/09/08 01:01:05;;;;;;;35.13;31.83;;;15.70;99.90;;;;;;5072491;28;20962;-71
2022/09/08 01:03:32;;;;;;;33.20;30.10;;;15.70;99.90;;;;;;5077268;28;20519;-70
2022/09/08 01:06:18;;;;;;;33.42;30.33;;;15.60;99.90;;;;;;5075354;28;20107;-73
2022/09/08 01:14:59;;;;;;;34.78;30.17;;;15.50;99.90;;;;;;4976909;28;20053;-72
2022/09/08 01:17:29;;;;;;;33.00;29.70;;;15.50;99.90;;;;;;5039654;28;20032;-72
2022/09/08 01:19:58;;;;;;;35.33;31.55;;;15.60;99.90;;;;;;5094574;22;20064;-75
2022/09/08 01:22:45;;;;;;;32.75;29.25;;;15.50;99.90;;;;;;5023857;28;20118;-75
2022/09/08 01:25:38;;;;;;;31.73;28.45;;;15.50;99.90;;;;;;5030252;28;20041;-75
2022/09/08 01:28:06;;;;;;;33.25;29.67;;;15.50;99.90;;;;;;5055840;28;20123;-77
2022/09/08 01:30:35;;;;;;;34.47;31.00;;;15.50;99.90;;;;;;5038935;28;21208;-75
2022/09/08 01:33:05;;;;;;;30.63;27.70;;;15.50;99.90;;;;;;5061527;28;20078;-74
2022/09/08 01:35:38;;;;;;;32.47;29.52;;;15.50;99.90;;;;;;5063124;28;20062;-75
2022/09/08 01:38:06;;;;;;;31.95;28.83;;;15.50;99.90;;;;;;5056483;28;20036;-75
2022/09/08 01:40:33;;;;;;;34.70;31.42;;;15.50;99.90;;;;;;5061524;28;20643;-75
2022/09/08 01:43:00;;;;;;;34.92;31.52;;;15.50;99.90;;;;;;5053977;28;20071;-75
2022/09/08 01:45:29;;;;;;;32.97;29.83;;;15.40;99.90;;;;;;5072681;28;20044;-76
2022/09/08 01:47:56;;;;;;;30.10;27.50;;;15.50;99.90;;;;;;5055106;28;20340;-75
2022/09/08 01:50:23;;;;;;;30.65;27.52;;;15.40;99.90;;;;;;5058151;28;20040;-75
2022/09/08 01:52:49;;;;;;;31.48;28.55;;;15.30;99.90;;;;;;5074534;28;20123;-76
2022/09/08 01:55:16;;;;;;;33.33;30.05;;;15.40;99.90;;;;;;5078338;28;20044;-77
2022/09/08 01:57:43;;;;;;;33.30;30.13;;;15.40;99.90;;;;;;5060203;28;20127;-75
2022/09/08 02:00:10;;;;;;;33.17;30.08;;;15.30;99.90;;;;;;5077570;28;20121;-75
2022/09/08 02:02:37;;;;;;;33.03;29.92;;;15.50;99.90;;;;;;5078226;28;20065;-75
2022/09/08 02:05:07;;;;;;;33.38;30.30;;;15.50;99.90;;;;;;5061191;28;20151;-75
2022/09/08 02:07:36;;;;;;;31.00;28.00;;;15.60;99.90;;;;;;5056603;28;20533;-76
2022/09/08 02:10:05;;;;;;;30.88;28.10;;;15.60;99.90;;;;;;5038131;28;20053;-76
2022/09/08 02:12:32;;;;;;;32.50;29.10;;;15.50;99.90;;;;;;5061056;28;20096;-76
2022/09/08 02:14:59;;;;;;;31.63;28.63;;;15.50;99.90;;;;;;5059344;28;20044;-76
2022/09/08 02:17:29;;;;;;;30.83;28.10;;;15.40;99.90;;;;;;5058106;28;20068;-76
2022/09/08 02:19:56;;;;;;;32.42;29.42;;;15.40;99.90;;;;;;5058253;28;20080;-76
2022/09/08 02:22:24;;;;;;;33.13;30.08;;;15.40;99.90;;;;;;5060543;28;20109;-76
2022/09/08 02:24:50;;;;;;;33.42;30.42;;;15.30;99.90;;;;;;5058807;28;20028;-77
2022/09/08 02:27:17;;;;;;;32.45;29.55;;;15.30;99.90;;;;;;5078022;28;20042;-77
2022/09/08 02:29:45;;;;;;;33.80;30.58;;;15.30;99.90;;;;;;5062328;28;20046;-75
2022/09/08 02:32:12;;;;;;;34.50;31.25;;;15.40;99.90;;;;;;5075917;28;20068;-75
2022/09/08 02:34:38;;;;;;;34.60;31.42;;;15.40;99.90;;;;;;5048190;28;20048;-76
2022/09/08 02:37:05;;;;;;;34.70;31.60;;;15.60;99.90;;;;;;5060742;28;20046;-75
2022/09/08 02:39:32;;;;;;;35.22;32.03;;;15.60;99.90;;;;;;5072248;28;20055;-75
2022/09/08 02:41:58;;;;;;;36.17;32.35;;;15.70;99.90;;;;;;5042329;28;20733;-74
2022/09/08 02:44:25;;;;;;;34.30;31.02;;;15.70;99.90;;;;;;5079035;28;20036;-75
2022/09/08 02:46:52;;;;;;;33.63;30.40;;;15.70;99.90;;;;;;5053679;28;20033;-78
2022/09/08 02:49:18;;;;;;;32.92;29.92;;;15.70;99.90;;;;;;5041934;28;20115;-77
2022/09/08 02:51:45;;;;;;;31.70;28.75;;;15.60;99.90;;;;;;5056587;28;20095;-77
2022/09/08 02:54:12;;;;;;;32.75;29.58;;;15.70;99.90;;;;;;5057129;28;20044;-76
2022/09/08 02:56:39;;;;;;;33.85;30.60;;;15.70;99.90;;;;;;5078588;28;20075;-77
2022/09/08 02:59:06;;;;;;;32.53;29.35;;;15.60;99.90;;;;;;5052484;28;20110;-77
2022/09/08 03:01:32;;;;;;;33.03;29.92;;;15.60;99.90;;;;;;5053658;28;20504;-76
2022/09/08 03:03:59;;;;;;;32.28;28.98;;;15.60;99.90;;;;;;5055289;28;20044;-77
2022/09/08 03:06:26;;;;;;;33.33;30.33;;;15.60;99.90;;;;;;5071064;28;20413;-77
2022/09/08 03:08:53;;;;;;;32.20;29.30;;;15.70;99.90;;;;;;5052558;28;20127;-76
2022/09/08 03:11:23;;;;;;;32.90;29.75;;;15.70;99.90;;;;;;5057070;28;20406;-77
2022/09/08 03:13:49;;;;;;;33.28;30.02;;;15.70;99.90;;;;;;5079665;28;20071;-77
2022/09/08 03:16:16;;;;;;;32.35;29.40;;;15.70;99.90;;;;;;5080267;28;20127;-77
2022/09/08 03:18:43;;;;;;;32.75;29.67;;;15.70;99.90;;;;;;5062639;28;20741;-77
2022/09/08 03:21:11;;;;;;;31.92;28.92;;;15.80;99.90;;;;;;5055710;28;20664;-77
2022/09/08 03:23:38;;;;;;;32.97;29.95;;;15.80;99.90;;;;;;5081378;28;20525;-77
2022/09/08 03:26:16;;;;;;;33.50;30.30;;;15.90;99.90;;;;;;5041345;28;20048;-77
2022/09/08 03:28:50;;;;;;;34.00;30.80;;;16.00;99.90;;;;;;5075096;28;20052;-77
2022/09/08 03:31:19;;;;;;;32.53;29.23;;;16.00;99.90;;;;;;5035612;28;20071;-77
2022/09/08 03:33:46;;;;;;;34.00;30.67;;;16.10;99.90;;;;;;5075435;28;20036;-77
2022/09/08 03:36:14;;;;;;;34.08;30.55;;;16.20;99.90;;;;;;5050331;28;20055;-76
2022/09/08 03:38:41;;;;;;;32.17;29.35;;;16.30;99.90;;;;;;5039129;28;20048;-77
2022/09/08 03:41:10;;;;;;;35.97;32.58;;;16.30;99.90;;;;;;5076759;28;20044;-76
2022/09/08 03:43:41;;;;;;;33.63;30.27;;;16.30;99.90;;;;;;5077387;28;20043;-76
2022/09/08 03:46:08;;;;;;;31.10;28.20;;;16.30;99.90;;;;;;5056192;28;20112;-76
2022/09/08 03:48:35;;;;;;;33.33;29.98;;;16.20;99.90;;;;;;5056749;28;20040;-76
2022/09/08 03:51:14;;;;;;;32.65;29.42;;;16.10;99.90;;;;;;5070588;28;20056;-76
2022/09/08 03:53:41;;;;;;;33.45;30.15;;;16.00;99.90;;;;;;5046224;28;20504;-77
2022/09/08 03:56:09;;;;;;;36.50;32.58;;;16.10;99.90;;;;;;5059290;28;20044;-76
2022/09/08 03:58:37;;;;;;;34.92;31.52;;;16.10;99.90;;;;;;5057200;28;20091;-77
2022/09/08 04:01:09;;;;;;;34.35;31.10;;;16.00;99.90;;;;;;5045709;28;20396;-77
2022/09/08 04:03:37;;;;;;;35.97;32.58;;;16.10;99.90;;;;;;5055426;28;20075;-76
2022/09/08 04:06:10;;;;;;;37.92;34.38;;;16.20;99.90;;;;;;5057520;28;20608;-77
2022/09/08 04:08:37;;;;;;;35.80;32.35;;;16.20;99.90;;;;;;5055248;28;20098;-76
2022/09/08 04:11:05;;;;;;;36.55;33.05;;;16.30;99.90;;;;;;5044188;28;20543;-77
2022/09/08 04:13:32;;;;;;;37.63;33.80;;;16.30;99.90;;;;;;5082581;28;20047;-77
2022/09/08 04:15:59;;;;;;;36.17;32.50;;;16.30;99.90;;;;;;5059867;28;20060;-76
2022/09/08 04:18:26;;;;;;;35.83;32.28;;;16.40;99.90;;;;;;5065451;28;20133;-77
2022/09/08 04:20:59;;;;;;;34.97;31.58;;;16.40;99.90;;;;;;5061661;28;20417;-77
2022/09/08 04:23:26;;;;;;;34.95;31.63;;;16.30;99.90;;;;;;5062969;28;20054;-76
2022/09/08 04:26:02;;;;;;;35.25;31.30;;;16.40;99.90;;;;;;5057337;28;20052;-77
2022/09/08 04:28:29;;;;;;;33.08;29.92;;;16.50;99.90;;;;;;5065670;28;20545;-76
2022/09/08 04:30:56;;;;;;;33.75;30.58;;;16.60;99.90;;;;;;5079558;28;20139;-76
2022/09/08 04:33:23;;;;;;;35.22;31.75;;;16.60;99.90;;;;;;5040385;28;20082;-76
2022/09/08 04:35:50;;;;;;;37.50;33.92;;;16.60;99.90;;;;;;5082101;28;20047;-76
2022/09/08 04:38:36;;;;;;;37.33;33.72;;;16.50;99.90;;;;;;5085352;28;20040;-75
2022/09/08 04:41:09;;;;;;;38.60;34.63;;;16.60;99.90;;;;;;5076511;28;20112;-75
2022/09/08 04:43:36;;;;;;;41.05;36.83;;;16.70;99.90;;;;;;5059670;28;20043;-76
2022/09/08 04:46:06;;;;;;;39.03;35.00;;;16.70;99.90;;;;;;5046066;28;20131;-76
2022/09/08 04:48:35;;;;;;;38.85;35.00;;;16.60;99.90;;;;;;5063594;28;20544;-76
2022/09/08 04:51:03;;;;;;;37.85;33.95;;;16.50;99.90;;;;;;5046527;28;20135;-77
2022/09/08 04:53:31;;;;;;;45.42;35.97;;;16.50;99.90;;;;;;5078514;28;20036;-76
2022/09/08 04:56:00;;;;;;;40.42;36.10;;;16.50;99.90;;;;;;5059324;28;20094;-76
2022/09/08 04:58:33;;;;;;;41.30;36.88;;;16.50;99.90;;;;;;5060765;28;20044;-75
2022/09/08 05:01:08;;;;;;;40.85;34.90;;;16.60;99.90;;;;;;5060555;28;20054;-76
2022/09/08 05:03:35;;;;;;;42.13;37.42;;;16.60;99.90;;;;;;5056919;28;20083;-75
2022/09/08 05:06:14;;;;;;;39.85;35.67;;;16.70;99.90;;;;;;5064147;28;20056;-75
2022/09/08 05:08:45;;;;;;;39.22;35.08;;;16.70;99.90;;;;;;5052695;28;20048;-77
2022/09/08 05:11:13;;;;;;;41.03;36.58;;;16.80;99.90;;;;;;5075274;28;20043;-77
2022/09/08 05:13:40;;;;;;;40.67;36.38;;;16.70;99.90;;;;;;5056700;28;20547;-75
2022/09/08 05:16:12;;;;;;;40.75;36.55;;;16.70;99.90;;;;;;5038527;28;20074;-78
2022/09/08 05:18:40;;;;;;;39.33;35.22;;;16.80;99.90;;;;;;5077311;28;20101;-77
2022/09/08 05:21:08;;;;;;;38.13;34.40;;;16.80;99.90;;;;;;5056710;28;20044;-75
2022/09/08 05:23:35;;;;;;;38.92;35.13;;;16.80;99.90;;;;;;5059268;28;20498;-78
2022/09/08 05:26:08;;;;;;;43.85;39.15;;;16.80;99.90;;;;;;5068162;28;20048;-78
2022/09/08 05:28:37;;;;;;;40.20;36.22;;;16.70;99.90;;;;;;5073076;28;20313;-77
2022/09/08 05:31:11;;;;;;;40.22;35.95;;;16.70;99.90;;;;;;5045860;28;20056;-77
2022/09/08 05:33:38;;;;;;;40.58;36.03;;;16.80;99.90;;;;;;5041220;28;20139;-78
2022/09/08 05:36:14;;;;;;;39.75;35.60;;;16.90;99.90;;;;;;5061012;28;20584;-79
2022/09/08 05:38:42;;;;;;;40.95;36.90;;;16.90;99.90;;;;;;5065581;28;20127;-78
2022/09/08 05:41:09;;;;;;;40.10;35.85;;;17.00;99.90;;;;;;5075153;28;20057;-78
2022/09/08 05:43:37;;;;;;;40.47;36.17;;;16.90;99.90;;;;;;5060852;28;20048;-78
2022/09/08 05:46:04;;;;;;;41.03;36.78;;;16.80;99.90;;;;;;5083398;28;20052;-79
2022/09/08 05:48:31;;;;;;;40.92;36.70;;;16.90;99.90;;;;;;5089194;28;20040;-79
2022/09/08 05:50:58;;;;;;;42.20;37.92;;;17.00;99.90;;;;;;5052057;28;20048;-77
2022/09/08 05:53:27;;;;;;;44.10;39.53;;;17.10;99.90;;;;;;5064448;28;20626;-79
2022/09/08 05:55:59;;;;;;;43.17;38.72;;;17.00;99.90;;;;;;5061900;28;20090;-78
2022/09/08 05:58:27;;;;;;;45.08;39.20;;;17.10;99.90;;;;;;5063046;28;20052;-78
2022/09/08 06:00:59;;;;;;;41.20;36.88;;;17.10;99.90;;;;;;5074904;28;20056;-78
2022/09/08 06:03:27;;;;;;;40.00;35.92;;;17.10;99.90;;;;;;5062918;28;20391;-78
2022/09/08 06:05:55;;;;;;;39.92;36.20;;;17.10;99.90;;;;;;5063451;28;20494;-78
2022/09/08 06:08:22;;;;;;;40.67;36.67;;;17.10;99.90;;;;;;5058083;28;20124;-78
2022/09/08 06:10:53;;;;;;;40.50;36.42;;;17.20;99.90;;;;;;5060601;28;20040;-78
2022/09/08 06:13:23;;;;;;;37.38;33.92;;;17.20;99.90;;;;;;5060867;28;20337;-77
2022/09/08 06:15:51;;;;;;;39.35;35.50;;;17.20;99.90;;;;;;5080675;28;20066;-78
2022/09/08 06:18:18;;;;;;;38.47;34.75;;;17.20;99.90;;;;;;5063178;28;20135;-79
2022/09/08 06:20:45;;;;;;;39.60;35.70;;;17.20;99.90;;;;;;5079834;28;20036;-78
2022/09/08 06:23:13;;;;;;;40.40;36.30;;;17.20;99.90;;;;;;5054964;28;20064;-78
2022/09/08 06:25:41;;;;;;;38.97;35.28;;;17.30;99.90;;;;;;5055960;28;20530;-78
2022/09/08 06:28:25;;;;;;;38.45;34.67;;;17.30;99.90;;;;;;5058692;28;20059;-78
2022/09/08 06:30:54;;;;;;;38.38;34.60;;;17.30;99.90;;;;;;5053267;28;20558;-78
2022/09/08 06:33:30;;;;;;;39.10;35.38;;;17.20;99.90;;;;;;5059944;28;20051;-78
2022/09/08 06:36:05;;;;;;;41.58;37.30;;;17.30;99.90;;;;;;5075939;28;20596;-76
2022/09/08 06:38:42;;;;;;;40.97;36.63;;;17.40;99.90;;;;;;5061983;28;20113;-79
2022/09/08 06:41:20;;;;;;;40.72;36.67;;;17.40;99.90;;;;;;5077787;28;20717;-79
2022/09/08 06:44:03;;;;;;;42.95;38.63;;;17.40;99.90;;;;;;5060710;28;20320;-79
2022/09/08 06:46:36;;;;;;;42.30;37.83;;;17.40;99.90;;;;;;5058613;28;20094;-79
2022/09/08 06:49:03;;;;;;;40.10;36.05;;;17.40;99.90;;;;;;5061931;28;20109;-79
2022/09/08 06:51:58;;;;;;;42.38;38.17;;;17.20;99.90;;;;;;5054738;28;20492;-76
2022/09/08 06:54:45;;;;;;;44.03;39.53;;;17.20;99.90;;;;;;5036953;28;20131;-80
2022/09/08 06:57:27;;;;;;;41.78;37.35;;;17.10;99.90;;;;;;5061061;28;20632;-76
2022/09/08 07:00:11;;;;;;;42.67;37.90;;;17.00;99.90;;;;;;5069079;28;20064;-77
2022/09/08 07:02:44;;;;;;;43.28;37.58;;;17.00;99.90;;;;;;5071518;28;20637;-77
2022/09/08 07:05:31;;;;;;;30.40;24.25;;;17.00;99.90;;;;;;5050693;28;20040;-78
2022/09/08 07:08:10;;;;;;;23.83;21.48;;;16.80;99.90;;;;;;5070049;28;20175;-76
2022/09/08 07:10:57;;;;;;;18.98;17.23;;;16.80;99.90;;;;;;5063730;28;20040;-78
2022/09/08 07:13:39;;;;;;;20.45;18.63;;;16.80;99.90;;;;;;5044124;28;20040;-77
2022/09/08 07:16:40;;;;;;;16.88;15.38;;;16.80;99.90;;;;;;5062781;28;20044;-77
2022/09/08 07:19:25;;;;;;;16.83;15.32;;;16.80;99.90;;;;;;5036199;28;20080;-77
2022/09/08 07:22:19;;;;;;;18.48;16.00;;;16.70;99.90;;;;;;5062540;28;20058;-75
2022/09/08 07:24:49;;;;;;;14.48;13.45;;;16.80;99.90;;;;;;5062647;28;20048;-76
2022/09/08 07:27:17;;;;;;;12.18;11.07;;;16.70;99.90;;;;;;5059230;28;20538;-76
2022/09/08 07:29:48;;;;;;;11.73;10.82;;;16.60;99.90;;;;;;5058865;28;20491;-77
2022/09/08 07:32:23;;;;;;;11.05;9.75;;;16.40;99.90;;;;;;5057460;28;20131;-77
2022/09/08 07:34:54;;;;;;;10.27;9.30;;;16.40;99.90;;;;;;5054941;28;20037;-78
2022/09/08 07:37:26;;;;;;;8.80;8.07;;;16.30;99.90;;;;;;5060385;28;20565;-77
2022/09/08 07:40:21;;;;;;;8.55;7.90;;;16.20;99.90;;;;;;5058766;28;20036;-76
2022/09/08 07:42:54;;;;;;;9.02;8.43;;;16.10;99.90;;;;;;5055959;28;20044;-77
2022/09/08 07:45:26;;;;;;;9.52;8.60;;;16.00;99.90;;;;;;5058607;28;20131;-76
2022/09/08 07:47:57;;;;;;;8.02;7.43;;;16.00;99.90;;;;;;5064637;28;20044;-76
2022/09/08 07:50:53;;;;;;;8.15;7.32;;;16.00;99.90;;;;;;5057100;28;20040;-77
2022/09/08 07:53:36;;;;;;;8.45;7.63;;;16.10;99.90;;;;;;5073510;28;20447;-76
2022/09/08 07:56:26;;;;;;;8.57;7.57;;;16.10;99.90;;;;;;5056376;28;20045;-77
2022/09/08 07:59:32;;;;;;;8.02;7.43;;;16.10;99.90;;;;;;5046801;28;20051;-78
2022/09/08 08:02:27;;;;;;;8.02;7.43;;;16.00;99.90;;;;;;5060415;28;20100;-75
2022/09/08 08:05:00;;;;;;;9.53;8.63;;;15.90;99.90;;;;;;5059817;28;20043;-76
2022/09/08 08:07:34;;;;;;;9.52;8.55;;;15.90;99.90;;;;;;5073118;28;20290;-76
2022/09/08 08:10:27;;;;;;;9.63;8.70;;;16.00;99.90;;;;;;5053889;28;20041;-78
2022/09/08 08:13:30;;;;;;;12.63;8.63;;;15.90;99.90;;;;;;5079406;28;20036;-76
2022/09/08 08:16:15;;;;;;;9.48;8.43;;;15.90;99.90;;;;;;5054049;28;20040;-77
2022/09/08 08:19:05;;;;;;;9.70;8.70;;;15.90;99.90;;;;;;5055030;28;20063;-76
2022/09/08 08:21:37;;;;;;;12.65;9.45;;;15.90;99.90;;;;;;5054562;28;20036;-78
2022/09/08 08:24:13;;;;;;;11.80;9.65;;;15.90;99.90;;;;;;5052382;28;20040;-76
2022/09/08 08:26:55;;;;;;;11.65;10.45;;;16.00;99.90;;;;;;5046557;28;20552;-78
2022/09/08 08:29:40;;;;;;;12.85;10.32;;;15.90;99.90;;;;;;5058623;28;20036;-78
2022/09/08 08:32:16;;;;;;;13.68;10.02;;;16.00;99.90;;;;;;5055589;28;20526;-76
2022/09/08 08:35:40;;;;;;;11.70;9.73;;;16.00;99.90;;;;;;5058057;28;20059;-76
2022/09/08 08:38:16;;;;;;;14.18;10.57;;;16.00;99.90;;;;;;5035162;28;20636;-75
2022/09/08 08:40:56;;;;;;;11.80;10.60;;;15.90;99.90;;;;;;5038582;28;20041;-76
2022/09/08 08:43:45;;;;;;;12.07;9.70;;;15.90;99.90;;;;;;5061783;28;20709;-78
2022/09/08 08:46:42;;;;;;;12.65;9.90;;;15.80;99.90;;;;;;5059203;28;20056;-76
2022/09/08 08:49:39;;;;;;;15.27;10.10;;;15.80;99.90;;;;;;5055496;28;20112;-77
2022/09/08 08:52:44;;;;;;;12.73;9.77;;;15.80;99.90;;;;;;5074844;28;20043;-76
2022/09/08 08:55:29;;;;;;;10.45;9.45;;;15.90;99.90;;;;;;5037974;28;20094;-78
2022/09/08 08:58:04;;;;;;;;;;;15.80;99.90;;;;;;5059885;28;20067;-76
2022/09/08 09:00:58;;;;;;;9.20;8.18;;;15.80;99.90;;;;;;5085376;28;19931;-76
2022/09/08 09:03:58;;;;;;;9.68;8.68;;;15.80;99.90;;;;;;5058474;28;20143;-75
2022/09/08 09:06:46;;;;;;;9.43;8.43;;;15.80;99.90;;;;;;5026210;28;20568;-76
2022/09/08 09:09:32;;;;;;;11.48;9.77;;;15.80;99.90;;;;;;5077479;28;20029;-75
2022/09/08 09:12:10;;;;;;;10.18;8.45;;;15.90;99.90;;;;;;5078844;28;20070;-76
2022/09/08 09:15:10;;;;;;;9.70;8.40;;;15.90;99.90;;;;;;5076269;28;20043;-76
2022/09/08 09:18:32;;;;;;;11.07;8.35;;;16.00;99.90;;;;;;4993810;28;20039;-77
2022/09/08 09:21:26;;;;;;;10.75;9.65;;;16.10;99.90;;;;;;4992152;28;20044;-76
2022/09/08 09:24:08;;;;;;;12.63;9.65;;;16.20;99.90;;;;;;5075369;28;20155;-75
2022/09/08 09:26:35;;;;;;;13.77;9.38;;;16.30;99.90;;;;;;5076224;28;20438;-76
2022/09/08 09:29:21;;;;;;;10.32;9.10;;;16.30;99.90;;;;;;5056083;28;20052;-77
2022/09/08 09:32:10;;;;;;;10.93;9.73;;;16.20;99.90;;;;;;5060222;28;20050;-74
2022/09/08 09:34:54;;;;;;;10.35;9.35;;;16.30;99.90;;;;;;5060182;28;20072;-76
2022/09/08 09:37:48;;;;;;;10.57;9.48;;;16.30;99.90;;;;;;5045864;28;20055;-77
2022/09/08 09:40:34;;;;;;;13.35;10.70;;;16.30;99.90;;;;;;5068031;28;20478;-74
2022/09/08 09:43:13;;;;;;;11.95;10.75;;;16.40;99.90;;;;;;5052908;28;20040;-76
2022/09/08 09:46:01;;;;;;;12.43;10.98;;;16.50;99.90;;;;;;5045335;28;20156;-75
2022/09/08 09:49:07;;;;;;;12.27;10.77;;;16.60;99.90;;;;;;5058698;28;20036;-73
2022/09/08 09:51:50;;;;;;;12.52;10.13;;;16.60;99.90;;;;;;5033129;28;20044;-74
2022/09/08 09:54:23;;;;;;;11.93;10.65;;;16.60;99.90;;;;;;5070220;28;20102;-77
2022/09/08 09:56:50;;;;;;;9.57;8.57;;;16.70;99.90;;;;;;5058310;28;20403;-74
2022/09/08 09:59:55;;;;;;;12.27;9.35;;;16.60;99.90;;;;;;5074014;28;20044;-75
2022/09/08 10:03:15;;;;;;;8.85;8.00;;;16.60;99.90;;;;;;5061559;28;20047;-77
2022/09/08 10:06:12;;;;;;;8.18;7.38;;;16.60;99.90;;;;;;5064755;28;20548;-74
2022/09/08 10:09:16;;;;;;;8.05;6.85;;;16.40;99.90;;;;;;5066089;28;20036;-74
2022/09/08 10:12:12;;;;;;;7.82;7.22;;;16.30;99.90;;;;;;5049192;28;20172;-73
2022/09/08 10:14:59;;;;;;;6.93;6.20;;;16.40;99.90;;;;;;5069164;28;20052;-74
2022/09/08 10:17:41;;;;;;;7.00;6.40;;;16.50;99.90;;;;;;5053311;28;20066;-76
2022/09/08 10:20:39;;;;;;;6.97;6.30;;;16.50;99.90;;;;;;5070006;28;20047;-75
2022/09/08 10:23:33;;;;;;;8.50;6.13;;;16.50;99.90;;;;;;5050075;28;20043;-75
2022/09/08 10:26:09;;;;;;;7.38;6.68;;;16.50;99.90;;;;;;5052124;28;20032;-75
2022/09/08 10:29:20;;;;;;;6.88;6.28;;;16.40;99.90;;;;;;5033837;28;20036;-76
2022/09/08 10:31:50;;;;;;;6.95;6.30;;;16.50;99.90;;;;;;4959023;28;20054;-78
2022/09/08 10:35:03;;;;;;;6.78;6.20;;;16.50;99.90;;;;;;4972375;28;20553;-78
2022/09/08 10:38:09;;;;;;;7.75;6.97;;;16.50;99.90;;;;;;5014181;28;20054;-76
2022/09/08 10:40:41;;;;;;;8.85;7.60;;;16.50;99.90;;;;;;5066648;28;20081;-74
2022/09/08 10:43:30;;;;;;;8.18;7.38;;;16.40;99.90;;;;;;5050812;28;20048;-74
2022/09/08 10:45:56;;;;;;;7.28;6.68;;;16.60;99.90;;;;;;5070380;28;20655;-78
2022/09/08 10:48:29;;;;;;;7.85;7.25;;;16.70;99.90;;;;;;5052996;28;20052;-77
2022/09/08 10:51:38;;;;;;;9.80;8.32;;;16.80;99.90;;;;;;5070295;28;20161;-75
2022/09/08 10:54:28;;;;;;;9.88;8.57;;;16.90;99.90;;;;;;5069042;28;20549;-75
2022/09/08 10:56:58;;;;;;;9.82;8.93;;;16.80;99.90;;;;;;5045932;28;20063;-78
2022/09/08 10:59:40;;;;;;;10.38;9.57;;;16.80;99.90;;;;;;5073669;28;20743;-75
2022/09/08 11:02:34;;;;;;;12.38;11.27;;;16.80;99.90;;;;;;5048238;28;20423;-76
2022/09/08 11:05:35;;;;;;;12.55;11.45;;;16.80;99.90;;;;;;5053869;28;20046;-76
2022/09/08 11:08:23;;;;;;;14.32;12.85;;;16.60;99.90;;;;;;5071629;28;20151;-75
2022/09/08 11:11:07;;;;;;;12.18;10.20;;;16.70;99.90;;;;;;5054714;28;20732;-74
2022/09/08 11:13:40;;;;;;;8.75;8.05;;;16.50;99.90;;;;;;5057998;28;20047;-75
2022/09/08 11:16:25;;;;;;;9.38;8.43;;;16.30;99.90;;;;;;5049904;28;20054;-75
2022/09/08 11:18:59;;;;;;;9.77;8.88;;;16.10;99.90;;;;;;5054449;28;20040;-75
2022/09/08 11:22:01;;;;;;;11.82;10.80;;;16.10;99.90;;;;;;5066538;28;20100;-75
2022/09/08 11:24:38;;;;;;;11.82;10.63;;;16.10;99.90;;;;;;5050872;28;20044;-73
2022/09/08 11:27:14;;;;;;;12.35;11.15;;;16.00;99.90;;;;;;5070268;28;20127;-77
2022/09/08 11:29:41;;;;;;;12.23;11.02;;;16.00;99.90;;;;;;5047645;28;20043;-77
2022/09/08 11:32:35;;;;;;;11.90;10.77;;;16.00;99.90;;;;;;5048938;28;20046;-75
2022/09/08 11:35:23;;;;;;;11.35;10.35;;;15.90;99.90;;;;;;5049104;28;20730;-76
2022/09/08 11:37:53;;;;;;;11.15;10.15;;;16.00;99.90;;;;;;5066818;28;20036;-75
2022/09/08 11:40:25;;;;;;;12.20;11.07;;;16.00;99.90;;;;;;5074476;28;20045;-75
2022/09/08 11:43:23;;;;;;;12.10;10.70;;;16.00;99.90;;;;;;5071698;28;20037;-74
2022/09/08 11:46:11;;;;;;;11.98;10.82;;;16.10;99.90;;;;;;5050495;28;20052;-76
2022/09/08 11:49:04;;;;;;;10.82;9.82;;;16.10;99.90;;;;;;5077643;28;20060;-74
2022/09/08 11:52:04;;;;;;;11.27;10.18;;;16.10;99.90;;;;;;5063137;28;20599;-76
2022/09/08 11:54:54;;;;;;;22.60;9.95;;;16.00;99.90;;;;;;5070922;28;20048;-76
2022/09/08 11:57:47;;;;;;;9.13;6.72;;;15.80;99.90;;;;;;5050705;28;20139;-75
2022/09/08 12:00:18;;;;;;;8.10;4.43;;;15.60;99.90;;;;;;4997772;28;20048;-78
2022/09/08 12:03:10;;;;;;;5.05;4.15;;;15.50;99.90;;;;;;5042696;28;20565;-76
2022/09/08 12:06:01;;;;;;;9.15;4.30;;;15.40;99.90;;;;;;5049643;28;20762;-75
2022/09/08 12:09:04;;;;;;;11.95;8.68;;;15.30;99.90;;;;;;5052389;28;20036;-76
2022/09/08 12:12:05;;;;;;;12.15;8.88;;;15.40;99.90;;;;;;5041945;28;20056;-75
2022/09/08 12:14:43;;;;;;;18.90;13.82;;;15.50;99.90;;;;;;5070529;28;20051;-73
2022/09/08 12:17:38;;;;;;;20.17;13.32;;;15.60;99.90;;;;;;5050808;28;20039;-76
2022/09/08 12:20:30;;;;;;;;;;;15.70;99.90;;;;;;5076784;28;20050;-76
2022/09/08 12:23:18;;;;;;;35.00;21.77;;;15.80;99.90;;;;;;5056438;28;19920;-77
2022/09/08 12:26:11;;;;;;;41.47;25.92;;;15.80;99.90;;;;;;5057090;28;20036;-76
2022/09/08 12:29:08;;;;;;;45.08;30.25;;;15.90;99.90;;;;;;5014466;28;20086;-76
2022/09/08 12:31:51;;;;;;;51.17;31.75;;;16.10;99.90;;;;;;5028008;28;20183;-74
2022/09/08 12:34:33;;;;;;;59.47;36.63;;;16.30;99.90;;;;;;5066586;28;20044;-77
2022/09/08 12:37:37;;;;;;;48.08;34.47;;;16.40;99.90;;;;;;5056051;28;20112;-75
2022/09/08 12:40:48;;;;;;;52.85;33.92;;;16.40;99.90;;;;;;5060349;28;20143;-75
2022/09/08 12:43:22;;;;;;;57.30;37.33;;;16.30;99.90;;;;;;5059387;28;20080;-74
2022/09/08 12:46:10;;;;;;;47.00;34.65;;;16.30;99.90;;;;;;5049177;28;20060;-76
2022/09/08 12:49:27;;;;;;;43.50;31.27;;;16.30;99.90;;;;;;5072488;28;20036;-79
2022/09/08 12:52:00;;;;;;;44.45;32.15;;;16.20;99.90;;;;;;5033485;28;20043;-76
2022/09/08 12:55:03;;;;;;;43.90;31.10;;;16.50;99.90;;;;;;5054332;28;20044;-76
2022/09/08 12:57:40;;;;;;;40.55;29.98;;;16.80;99.90;;;;;;5051462;28;20043;-76
2022/09/08 13:00:12;;;;;;;39.28;28.90;;;17.10;99.90;;;;;;5052036;28;20047;-74
2022/09/08 13:03:16;;;;;;;40.30;31.25;;;17.10;99.90;;;;;;5072269;28;20127;-76
2022/09/08 13:06:06;;;;;;;35.72;30.83;;;17.30;99.90;;;;;;5049026;28;20044;-78
2022/09/08 13:08:55;;;;;;;43.70;35.25;;;17.20;99.90;;;;;;5054180;28;20041;-77
2022/09/08 13:11:28;;;;;;;37.17;33.15;;;17.40;99.90;;;;;;5052226;28;20542;-79
2022/09/08 13:14:09;;;;;;;35.33;29.90;;;17.70;99.90;;;;;;5054930;28;20104;-78
2022/09/08 13:16:49;;;;;;;29.58;26.48;;;18.00;99.90;;;;;;5056431;28;20044;-79
2022/09/08 13:19:31;;;;;;;32.85;29.55;;;18.40;99.90;;;;;;5058982;28;20052;-77
2022/09/08 13:22:26;;;;;;;27.58;25.02;;;18.70;99.90;;;;;;5038403;28;20048;-77
2022/09/08 13:25:31;;;;;;;31.80;29.00;;;18.70;99.90;;;;;;5072595;28;20115;-77
2022/09/08 13:28:12;;;;;;;31.83;28.80;;;18.60;99.90;;;;;;5067670;28;20491;-75
2022/09/08 13:31:01;;;;;;;31.00;28.25;;;18.90;99.90;;;;;;5055794;28;20040;-79